createdAt,value
2023-02-14T00:01:04.000Z,-1
2023-02-14T00:02:16.000Z,1.9
2023-02-14T00:03:28.000Z,0.3
2023-02-14T00:04:40.000Z,0.6
2023-02-14T00:05:53.000Z,0.9
2023-02-14T00:07:05.000Z,0.9
2023-02-14T00:08:17.000Z,0.9
2023-02-14T00:09:29.000Z,0.6
2023-02-14T00:10:40.000Z,-1
2023-02-14T00:11:53.000Z,0.9
2023-02-14T00:13:05.000Z,0.9
2023-02-14T00:14:17.000Z,-0.4
2023-02-14T00:15:29.000Z,1.2
2023-02-14T00:16:41.000Z,1.6
2023-02-14T00:17:54.000Z,0.6
2023-02-14T00:19:06.000Z,-1
2023-02-14T00:20:18.000Z,1.2
2023-02-14T00:21:30.000Z,1.2
2023-02-14T00:22:42.000Z,0.9
2023-02-14T00:23:54.000Z,1.6
2023-02-14T00:25:07.000Z,-0.4
2023-02-14T00:26:18.000Z,1.2
2023-02-14T00:27:30.000Z,1.6
2023-02-14T00:28:42.000Z,1.2
2023-02-14T00:29:54.000Z,-0.7
2023-02-14T00:31:07.000Z,-1.7
2023-02-14T00:32:19.000Z,0.6
2023-02-14T00:33:31.000Z,0
2023-02-14T00:34:43.000Z,1.2
2023-02-14T00:35:55.000Z,0.9
2023-02-14T00:37:08.000Z,1.2
2023-02-14T00:38:20.000Z,2.2
2023-02-14T00:39:32.000Z,3.2
2023-02-14T00:40:44.000Z,1.6
2023-02-14T00:41:55.000Z,-1
2023-02-14T00:43:07.000Z,-0.7
2023-02-14T00:44:20.000Z,1.2
2023-02-14T00:45:32.000Z,-1.3
2023-02-14T00:46:44.000Z,1.2
2023-02-14T00:47:56.000Z,0.6
2023-02-14T00:49:08.000Z,3.8
2023-02-14T00:50:21.000Z,1.2
2023-02-14T00:51:33.000Z,3.5
2023-02-14T00:52:45.000Z,-0.7
2023-02-14T00:53:57.000Z,1.6
2023-02-14T00:55:09.000Z,-0.4
2023-02-14T00:56:22.000Z,3.8
2023-02-14T00:57:33.000Z,1.2
2023-02-14T00:58:45.000Z,1.2
2023-02-14T00:59:57.000Z,3.5
2023-02-14T01:01:09.000Z,1.2
2023-02-14T01:02:21.000Z,0.9
2023-02-14T01:03:34.000Z,2.2
2023-02-14T01:04:46.000Z,1.2
2023-02-14T01:05:58.000Z,1.6
2023-02-14T01:07:10.000Z,1.2
2023-02-14T01:08:22.000Z,1.6
2023-02-14T01:09:35.000Z,1.2
2023-02-14T01:10:47.000Z,0.9
2023-02-14T01:11:59.439Z,1.2
2023-02-14T01:13:10.000Z,0.9
2023-02-14T01:14:22.000Z,0.9
2023-02-14T01:15:35.000Z,1.2
2023-02-14T01:16:47.000Z,1.2
2023-02-14T01:17:59.000Z,1.2
2023-02-14T01:19:11.000Z,1.9
2023-02-14T01:20:23.000Z,1.9
2023-02-14T01:21:35.000Z,1.2
2023-02-14T01:22:48.000Z,1.2
2023-02-14T01:24:00.000Z,-0.7
2023-02-14T01:25:12.000Z,1.6
2023-02-14T01:26:24.000Z,1.6
2023-02-14T01:27:36.000Z,1.6
2023-02-14T01:28:48.000Z,3.5
2023-02-14T01:30:00.000Z,1.6
2023-02-14T01:31:12.000Z,1.9
2023-02-14T01:32:24.000Z,1.6
2023-02-14T01:33:36.000Z,1.6
2023-02-14T01:34:48.000Z,1.6
2023-02-14T01:36:01.000Z,0.9
2023-02-14T01:37:12.000Z,1.2
2023-02-14T01:38:24.000Z,1.2
2023-02-14T01:39:36.000Z,3.2
2023-02-14T01:40:48.000Z,3.2
2023-02-14T01:42:01.000Z,-0.7
2023-02-14T01:43:13.000Z,0.9
2023-02-14T01:44:25.000Z,2.2
2023-02-14T01:45:37.000Z,0.9
2023-02-14T01:46:49.000Z,1.2
2023-02-14T01:48:02.000Z,2.5
2023-02-14T01:49:14.000Z,1.9
2023-02-14T01:50:26.000Z,1.6
2023-02-14T01:51:38.000Z,-1
2023-02-14T01:52:49.000Z,1.6
2023-02-14T01:54:01.000Z,1.2
2023-02-14T01:55:14.000Z,1.9
2023-02-14T01:56:26.000Z,1.9
2023-02-14T01:57:38.000Z,-0.7
2023-02-14T01:58:50.000Z,2.2
2023-02-14T02:00:02.000Z,1.9
2023-02-14T02:01:15.000Z,0.3
2023-02-14T02:02:27.000Z,0.3
2023-02-14T02:03:39.000Z,3.8
2023-02-14T02:04:51.000Z,-0.7
2023-02-14T02:06:03.000Z,1.6
2023-02-14T02:07:16.000Z,1.2
2023-02-14T02:08:28.000Z,1.9
2023-02-14T02:09:39.000Z,2.9
2023-02-14T02:10:51.000Z,1.6
2023-02-14T02:12:03.000Z,1.2
2023-02-14T02:13:15.000Z,0.6
2023-02-14T02:14:28.000Z,-0.4
2023-02-14T02:15:40.000Z,1.2
2023-02-14T02:16:52.000Z,1.2
2023-02-14T02:18:04.000Z,1.6
2023-02-14T02:19:16.000Z,-1
2023-02-14T02:20:29.000Z,1.6
2023-02-14T02:21:41.000Z,1.6
2023-02-14T02:22:53.000Z,0.9
2023-02-14T02:24:05.000Z,2.5
2023-02-14T02:25:16.000Z,1.2
2023-02-14T02:26:29.000Z,0.9
2023-02-14T02:27:41.000Z,-0.7
2023-02-14T02:28:53.000Z,3.8
2023-02-14T02:30:05.000Z,-1
2023-02-14T02:31:17.000Z,1.6
2023-02-14T02:32:29.000Z,1.2
2023-02-14T02:33:42.000Z,1.6
2023-02-14T02:34:54.000Z,1.2
2023-02-14T02:36:06.000Z,0.6
2023-02-14T02:37:18.000Z,1.6
2023-02-14T02:38:30.000Z,1.9
2023-02-14T02:39:43.000Z,1.2
2023-02-14T02:40:54.000Z,1.6
2023-02-14T02:42:06.000Z,1.2
2023-02-14T02:43:18.000Z,1.2
2023-02-14T02:44:30.000Z,0.9
2023-02-14T02:45:43.000Z,1.9
2023-02-14T02:46:55.000Z,1.9
2023-02-14T02:48:07.000Z,1.2
2023-02-14T02:49:19.000Z,0.3
2023-02-14T02:50:31.000Z,1.6
2023-02-14T02:51:43.000Z,0.3
2023-02-14T02:52:56.000Z,1.6
2023-02-14T02:54:08.000Z,0
2023-02-14T02:55:20.000Z,2.9
2023-02-14T02:56:31.000Z,-0.7
2023-02-14T02:57:43.000Z,1.2
2023-02-14T02:58:56.000Z,-0.4
2023-02-14T03:00:08.000Z,3.5
2023-02-14T03:01:20.000Z,1.2
2023-02-14T03:02:32.000Z,1.2
2023-02-14T03:03:44.000Z,1.2
2023-02-14T03:04:57.000Z,1.6
2023-02-14T03:06:09.000Z,1.2
2023-02-14T03:07:21.000Z,3.5
2023-02-14T03:08:33.000Z,3.5
2023-02-14T03:09:45.000Z,2.5
2023-02-14T03:10:57.000Z,1.6
2023-02-14T03:12:09.000Z,1.9
2023-02-14T03:13:21.000Z,1.6
2023-02-14T03:14:33.000Z,2.9
2023-02-14T03:15:45.000Z,3.5
2023-02-14T03:16:57.000Z,2.5
2023-02-14T03:18:10.000Z,1.9
2023-02-14T03:19:22.000Z,0.6
2023-02-14T03:20:34.000Z,1.6
2023-02-14T03:21:46.000Z,1.2
2023-02-14T03:22:58.000Z,1.2
2023-02-14T03:24:10.000Z,-0.4
2023-02-14T03:25:23.000Z,1.6
2023-02-14T03:26:35.000Z,2.9
2023-02-14T03:27:46.000Z,0.3
2023-02-14T03:28:58.000Z,2.5
2023-02-14T03:30:10.000Z,5.4
2023-02-14T03:31:23.000Z,1.2
2023-02-14T03:32:35.000Z,1.6
2023-02-14T03:33:47.000Z,1.6
2023-02-14T03:34:59.000Z,1.2
2023-02-14T03:36:11.000Z,1.2
2023-02-14T03:37:24.000Z,-0.4
2023-02-14T03:38:36.000Z,1.2
2023-02-14T03:39:48.000Z,1.6
2023-02-14T03:41:00.000Z,0
2023-02-14T03:42:12.000Z,1.9
2023-02-14T03:43:23.000Z,1.6
2023-02-14T03:44:36.000Z,-0.4
2023-02-14T03:45:48.000Z,3.5
2023-02-14T03:47:00.000Z,1.2
2023-02-14T03:48:12.000Z,1.2
2023-02-14T03:49:24.000Z,1.2
2023-02-14T03:50:37.000Z,-0.4
2023-02-14T03:51:49.000Z,1.2
2023-02-14T03:53:01.000Z,1.6
2023-02-14T03:54:13.000Z,2.5
2023-02-14T03:55:25.000Z,1.9
2023-02-14T03:56:38.000Z,1.6
2023-02-14T03:57:50.000Z,2.2
2023-02-14T03:59:01.000Z,3.2
2023-02-14T04:00:13.000Z,2.9
2023-02-14T04:01:25.000Z,2.2
2023-02-14T04:02:37.000Z,1.6
2023-02-14T04:03:50.000Z,3.8
2023-02-14T04:05:02.000Z,1.2
2023-02-14T04:06:14.000Z,1.6
2023-02-14T04:07:26.000Z,0.6
2023-02-14T04:08:38.000Z,3.5
2023-02-14T04:09:51.000Z,1.6
2023-02-14T04:11:03.000Z,1.2
2023-02-14T04:12:15.000Z,3.8
2023-02-14T04:13:27.000Z,-0.7
2023-02-14T04:14:38.000Z,1.9
2023-02-14T04:15:51.000Z,2.2
2023-02-14T04:17:03.000Z,-0.4
2023-02-14T04:18:15.000Z,1.6
2023-02-14T04:19:27.000Z,3.5
2023-02-14T04:20:39.000Z,3.2
2023-02-14T04:22:03.889Z,3.5
2023-02-14T04:23:04.000Z,-0.4
2023-02-14T04:24:16.000Z,3.2
2023-02-14T04:25:28.000Z,1.2
2023-02-14T04:26:40.000Z,1.6
2023-02-14T04:27:52.000Z,1.9
2023-02-14T04:29:05.000Z,2.5
2023-02-14T04:30:16.000Z,3.5
2023-02-14T04:31:28.000Z,0
2023-02-14T04:32:40.000Z,1.6
2023-02-14T04:33:52.000Z,-0.7
2023-02-14T04:35:05.000Z,1.6
2023-02-14T04:36:17.000Z,1.2
2023-02-14T04:37:29.000Z,-0.4
2023-02-14T04:38:41.000Z,-0.4
2023-02-14T04:39:53.000Z,1.2
2023-02-14T04:41:05.000Z,3.2
2023-02-14T04:42:18.000Z,1.2
2023-02-14T04:43:30.000Z,1.2
2023-02-14T04:44:42.000Z,1.2
2023-02-14T04:45:53.000Z,2.9
2023-02-14T04:47:05.000Z,-0.4
2023-02-14T04:48:18.000Z,1.6
2023-02-14T04:49:30.000Z,1.6
2023-02-14T04:50:42.000Z,-1
2023-02-14T04:51:54.000Z,1.6
2023-02-14T04:53:06.000Z,1.6
2023-02-14T04:54:19.000Z,1.6
2023-02-14T04:55:31.000Z,3.2
2023-02-14T04:56:43.000Z,2.9
2023-02-14T04:57:55.000Z,3.2
2023-02-14T04:59:07.000Z,1.9
2023-02-14T05:00:19.000Z,1.9
2023-02-14T05:01:31.000Z,1.6
2023-02-14T05:02:43.000Z,-0.4
2023-02-14T05:03:55.000Z,-0.7
2023-02-14T05:05:07.000Z,1.6
2023-02-14T05:06:19.000Z,3.5
2023-02-14T05:07:32.000Z,1.6
2023-02-14T05:08:44.000Z,0.6
2023-02-14T05:09:56.000Z,1.9
2023-02-14T05:11:08.000Z,1.6
2023-02-14T05:12:20.000Z,1.2
2023-02-14T05:13:32.000Z,1.6
2023-02-14T05:14:45.000Z,1.6
2023-02-14T05:15:57.000Z,3.5
2023-02-14T05:17:08.000Z,0.3
2023-02-14T05:18:20.000Z,3.5
2023-02-14T05:19:32.000Z,0.6
2023-02-14T05:20:45.000Z,0.3
2023-02-14T05:22:09.270Z,3.8
2023-02-14T05:23:09.000Z,1.6
2023-02-14T05:24:21.000Z,2.2
2023-02-14T05:25:33.000Z,3.5
2023-02-14T05:26:46.000Z,0.9
2023-02-14T05:27:58.000Z,1.2
2023-02-14T05:29:10.000Z,1.9
2023-02-14T05:30:22.000Z,1.6
2023-02-14T05:31:34.000Z,4.8
2023-02-14T05:32:46.000Z,1.6
2023-02-14T05:33:58.000Z,0
2023-02-14T05:35:10.000Z,0.9
2023-02-14T05:36:22.000Z,3.2
2023-02-14T05:37:34.000Z,3.2
2023-02-14T05:38:46.000Z,2.5
2023-02-14T05:39:58.000Z,3.5
2023-02-14T05:41:10.000Z,1.9
2023-02-14T05:42:22.000Z,1.6
2023-02-14T05:43:34.000Z,1.6
2023-02-14T05:44:46.000Z,2.2
2023-02-14T05:45:59.000Z,1.2
2023-02-14T05:47:11.000Z,1.2
2023-02-14T05:48:23.000Z,1.9
2023-02-14T05:49:35.000Z,1.9
2023-02-14T05:50:47.000Z,-1
2023-02-14T05:51:59.000Z,1.2
2023-02-14T05:53:12.000Z,1.9
2023-02-14T05:54:24.000Z,2.5
2023-02-14T05:55:35.000Z,0.9
2023-02-14T05:56:47.000Z,1.6
2023-02-14T05:57:59.000Z,1.2
2023-02-14T05:59:12.000Z,1.2
2023-02-14T06:00:24.000Z,-1
2023-02-14T06:01:36.000Z,1.6
2023-02-14T06:02:48.000Z,1.9
2023-02-14T06:04:00.000Z,1.2
2023-02-14T06:05:13.000Z,-0.7
2023-02-14T06:06:25.000Z,1.6
2023-02-14T06:07:37.000Z,0.6
2023-02-14T06:08:49.000Z,-0.4
2023-02-14T06:10:01.000Z,2.9
2023-02-14T06:11:12.000Z,1.6
2023-02-14T06:12:25.000Z,-0.7
2023-02-14T06:13:37.000Z,1.2
2023-02-14T06:14:49.000Z,3.2
2023-02-14T06:16:01.000Z,1.2
2023-02-14T06:17:13.000Z,1.6
2023-02-14T06:18:26.000Z,3.5
2023-02-14T06:19:38.000Z,1.9
2023-02-14T06:20:50.000Z,2.9
2023-02-14T06:22:02.000Z,1.2
2023-02-14T06:23:14.000Z,1.2
2023-02-14T06:24:27.000Z,3.5
2023-02-14T06:25:39.000Z,1.9
2023-02-14T06:26:50.000Z,3.2
2023-02-14T06:28:02.000Z,1.2
2023-02-14T06:29:14.000Z,1.6
2023-02-14T06:30:26.000Z,-0.7
2023-02-14T06:31:51.169Z,2.5
2023-02-14T06:32:51.000Z,2.5
2023-02-14T06:34:15.534Z,1.2
2023-02-14T06:35:15.000Z,1.6
2023-02-14T06:36:27.000Z,1.6
2023-02-14T06:37:40.000Z,1.2
2023-02-14T06:38:52.000Z,0.9
2023-02-14T06:40:04.000Z,1.6
2023-02-14T06:41:16.000Z,1.9
2023-02-14T06:42:27.000Z,3.8
2023-02-14T06:43:40.000Z,1.2
2023-02-14T06:44:52.000Z,1.6
2023-02-14T06:46:04.000Z,1.2
2023-02-14T06:47:16.000Z,1.6
2023-02-14T06:48:28.000Z,1.6
2023-02-14T06:49:40.000Z,1.6
2023-02-14T06:50:53.000Z,1.6
2023-02-14T06:52:05.000Z,1.6
2023-02-14T06:53:17.000Z,-1.3
2023-02-14T06:54:29.000Z,1.9
2023-02-14T06:55:41.000Z,0.6
2023-02-14T06:56:54.000Z,1.6
2023-02-14T06:58:05.000Z,1.2
2023-02-14T06:59:17.000Z,1.6
2023-02-14T07:00:29.000Z,-0.7
2023-02-14T07:01:41.000Z,1.2
2023-02-14T07:02:54.000Z,-1
2023-02-14T07:04:06.000Z,1.2
2023-02-14T07:05:18.000Z,1.6
2023-02-14T07:06:30.000Z,1.6
2023-02-14T07:07:42.000Z,1.2
2023-02-14T07:08:54.000Z,1.6
2023-02-14T07:10:07.000Z,3.2
2023-02-14T07:11:19.000Z,1.6
2023-02-14T07:12:31.000Z,-2
2023-02-14T07:13:42.000Z,1.2
2023-02-14T07:14:54.000Z,1.9
2023-02-14T07:16:07.000Z,1.6
2023-02-14T07:17:19.000Z,1.6
2023-02-14T07:18:31.000Z,1.6
2023-02-14T07:19:43.000Z,0
2023-02-14T07:20:55.000Z,1.2
2023-02-14T07:22:08.000Z,2.5
2023-02-14T07:23:20.000Z,1.6
2023-02-14T07:24:32.000Z,0.3
2023-02-14T07:25:44.000Z,2.2
2023-02-14T07:26:56.000Z,1.6
2023-02-14T07:28:08.000Z,1.6
2023-02-14T07:29:20.000Z,1.6
2023-02-14T07:30:32.000Z,1.6
2023-02-14T07:31:44.000Z,1.6
2023-02-14T07:32:56.000Z,-0.7
2023-02-14T07:34:08.000Z,1.6
2023-02-14T07:35:21.000Z,1.6
2023-02-14T07:36:33.000Z,1.6
2023-02-14T07:37:45.000Z,1.6
2023-02-14T07:38:57.000Z,1.6
2023-02-14T07:40:09.000Z,2.5
2023-02-14T07:41:22.000Z,1.6
2023-02-14T07:42:34.000Z,-1
2023-02-14T07:43:46.000Z,0.6
2023-02-14T07:44:57.000Z,1.9
2023-02-14T07:46:09.000Z,1.9
2023-02-14T07:47:21.000Z,1.6
2023-02-14T07:48:34.000Z,0
2023-02-14T07:49:46.000Z,3.8
2023-02-14T07:50:58.000Z,1.6
2023-02-14T07:52:10.000Z,-0.4
2023-02-14T07:53:22.000Z,2.9
2023-02-14T07:54:35.000Z,0
2023-02-14T07:55:47.000Z,1.6
2023-02-14T07:56:59.000Z,3.5
2023-02-14T07:58:11.000Z,1.9
2023-02-14T07:59:23.000Z,1.9
2023-02-14T08:00:35.000Z,3.8
2023-02-14T08:01:47.000Z,2.2
2023-02-14T08:02:59.000Z,1.6
2023-02-14T08:04:11.000Z,1.6
2023-02-14T08:05:23.000Z,2.2
2023-02-14T08:06:35.000Z,2.5
2023-02-14T08:07:48.000Z,2.2
2023-02-14T08:09:00.000Z,0.3
2023-02-14T08:10:12.000Z,1.9
2023-02-14T08:11:24.000Z,3.2
2023-02-14T08:12:36.000Z,1.9
2023-02-14T08:13:49.000Z,3.2
2023-02-14T08:15:01.000Z,1.9
2023-02-14T08:16:12.000Z,1.9
2023-02-14T08:17:24.000Z,1.6
2023-02-14T08:18:36.000Z,0.3
2023-02-14T08:19:48.000Z,1.6
2023-02-14T08:21:01.000Z,1.9
2023-02-14T08:22:13.000Z,1.9
2023-02-14T08:23:25.000Z,1.9
2023-02-14T08:24:37.000Z,5.4
2023-02-14T08:25:49.000Z,2.2
2023-02-14T08:27:02.000Z,2.5
2023-02-14T08:28:14.000Z,4.5
2023-02-14T08:29:26.000Z,0
2023-02-14T08:30:38.000Z,2.2
2023-02-14T08:31:49.000Z,4.1
2023-02-14T08:33:02.000Z,0.6
2023-02-14T08:34:14.000Z,1.6
2023-02-14T08:35:26.000Z,2.2
2023-02-14T08:36:38.000Z,3.5
2023-02-14T08:37:50.000Z,2.5
2023-02-14T08:39:02.000Z,4.8
2023-02-14T08:40:15.000Z,3.8
2023-02-14T08:41:27.000Z,3.5
2023-02-14T08:42:39.000Z,4.1
2023-02-14T08:43:51.000Z,2.9
2023-02-14T08:45:03.000Z,1.9
2023-02-14T08:46:16.000Z,2.9
2023-02-14T08:47:27.000Z,4.8
2023-02-14T08:48:39.000Z,1.2
2023-02-14T08:49:51.000Z,2.9
2023-02-14T08:51:03.000Z,5.1
2023-02-14T08:52:16.000Z,3.2
2023-02-14T08:53:28.000Z,3.8
2023-02-14T08:54:40.000Z,0.9
2023-02-14T08:55:52.000Z,3.8
2023-02-14T08:57:04.000Z,3.5
2023-02-14T08:58:16.000Z,4.1
2023-02-14T08:59:29.000Z,3.5
2023-02-14T09:00:41.000Z,1.2
2023-02-14T09:01:53.000Z,2.9
2023-02-14T09:03:04.000Z,5.4
2023-02-14T09:04:16.000Z,3.8
2023-02-14T09:05:29.000Z,3.8
2023-02-14T09:06:41.000Z,5.4
2023-02-14T09:07:53.000Z,3.8
2023-02-14T09:09:05.000Z,3.5
2023-02-14T09:10:17.000Z,1.2
2023-02-14T09:11:30.000Z,0.6
2023-02-14T09:12:42.000Z,5.1
2023-02-14T09:13:54.000Z,5.4
2023-02-14T09:15:06.000Z,3.5
2023-02-14T09:16:18.000Z,3.8
2023-02-14T09:17:30.000Z,1.2
2023-02-14T09:18:42.000Z,3.8
2023-02-14T09:19:54.000Z,3.2
2023-02-14T09:21:06.000Z,3.5
2023-02-14T09:22:18.000Z,2.5
2023-02-14T09:23:30.000Z,3.8
2023-02-14T09:24:43.000Z,3.5
2023-02-14T09:25:55.000Z,3.8
2023-02-14T09:27:07.000Z,4.5
2023-02-14T09:28:19.000Z,4.8
2023-02-14T09:29:43.938Z,4.5
2023-02-14T09:30:44.000Z,3.8
2023-02-14T09:31:56.000Z,3.8
2023-02-14T09:33:08.000Z,3.5
2023-02-14T09:34:20.000Z,1.2
2023-02-14T09:35:44.873Z,4.1
2023-02-14T09:36:43.000Z,5.8
2023-02-14T09:37:56.000Z,3.8
2023-02-14T09:39:08.000Z,4.5
2023-02-14T09:40:20.000Z,6.1
2023-02-14T09:41:31.000Z,2.2
2023-02-14T09:42:43.000Z,4.5
2023-02-14T09:43:56.000Z,4.5
2023-02-14T09:45:08.000Z,4.1
2023-02-14T09:46:20.000Z,2.5
2023-02-14T09:47:32.000Z,4.8
2023-02-14T09:48:44.000Z,6.7
2023-02-14T09:49:56.000Z,2.9
2023-02-14T09:51:09.000Z,2.9
2023-02-14T09:52:21.000Z,6.4
2023-02-14T09:53:33.000Z,3.5
2023-02-14T09:54:45.000Z,6.1
2023-02-14T09:55:57.000Z,3.5
2023-02-14T09:57:09.000Z,5.8
2023-02-14T09:58:21.000Z,3.8
2023-02-14T09:59:33.000Z,5.8
2023-02-14T10:00:45.000Z,4.5
2023-02-14T10:01:57.000Z,5.8
2023-02-14T10:03:10.000Z,7.4
2023-02-14T10:04:22.000Z,4.5
2023-02-14T10:05:34.000Z,4.5
2023-02-14T10:06:46.000Z,6.7
2023-02-14T10:07:58.000Z,6.7
2023-02-14T10:09:10.000Z,4.8
2023-02-14T10:10:23.000Z,4.5
2023-02-14T10:11:35.000Z,7
2023-02-14T10:12:46.000Z,6.7
2023-02-14T10:13:58.000Z,9
2023-02-14T10:15:10.000Z,6.4
2023-02-14T10:16:23.000Z,9.3
2023-02-14T10:17:35.000Z,7
2023-02-14T10:18:47.000Z,2.5
2023-02-14T10:19:59.000Z,4.8
2023-02-14T10:21:11.000Z,7.4
2023-02-14T10:22:23.000Z,7.7
2023-02-14T10:23:36.000Z,9.6
2023-02-14T10:24:48.000Z,8
2023-02-14T10:26:00.000Z,8.3
2023-02-14T10:32:00.000Z,6.1
2023-02-14T10:34:24.000Z,7.7
2023-02-14T10:35:49.186Z,8
2023-02-14T10:36:49.000Z,8
2023-02-14T10:38:13.570Z,8
2023-02-14T10:40:25.000Z,6.7
2023-02-14T10:41:37.000Z,8
2023-02-14T10:42:50.000Z,7.7
2023-02-14T10:44:01.000Z,7.4
2023-02-14T10:45:13.000Z,8
2023-02-14T10:46:25.000Z,9.6
2023-02-14T10:47:37.000Z,7.7
2023-02-14T10:48:50.000Z,7.7
2023-02-14T10:50:02.000Z,9.3
2023-02-14T10:51:14.000Z,4.8
2023-02-14T10:52:26.000Z,8
2023-02-14T10:53:38.000Z,9.6
2023-02-14T10:54:50.000Z,8.3
2023-02-14T10:56:03.000Z,7.7
2023-02-14T10:57:15.000Z,8
2023-02-14T10:58:27.000Z,8
2023-02-14T10:59:38.000Z,9.9
2023-02-14T11:01:03.097Z,9.6
2023-02-14T11:02:03.000Z,8
2023-02-14T11:03:15.000Z,8.3
2023-02-14T11:04:27.000Z,8
2023-02-14T11:05:39.000Z,9.6
2023-02-14T11:06:51.000Z,9
2023-02-14T11:08:04.000Z,8
2023-02-14T11:09:16.000Z,6.1
2023-02-14T11:10:28.000Z,8.3
2023-02-14T11:11:40.000Z,8
2023-02-14T11:12:52.000Z,10.3
2023-02-14T11:14:04.000Z,8.3
2023-02-14T11:15:16.000Z,9.9
2023-02-14T11:16:28.000Z,8.3
2023-02-14T11:17:40.000Z,8
2023-02-14T11:18:52.000Z,8
2023-02-14T11:20:04.000Z,10.3
2023-02-14T11:21:17.000Z,8.3
2023-02-14T11:22:29.000Z,8
2023-02-14T11:23:41.000Z,6.1
2023-02-14T11:24:53.000Z,8.3
2023-02-14T11:26:05.000Z,6.4
2023-02-14T11:27:17.000Z,9.9
2023-02-14T11:28:30.000Z,10.3
2023-02-14T11:29:42.000Z,7.7
2023-02-14T11:30:53.000Z,10.9
2023-02-14T11:32:05.000Z,10.6
2023-02-14T11:33:17.000Z,9
2023-02-14T11:34:30.000Z,8.3
2023-02-14T11:35:42.000Z,6.7
2023-02-14T11:36:54.000Z,8.7
2023-02-14T11:38:06.000Z,9.9
2023-02-14T11:39:18.000Z,9.3
2023-02-14T11:40:31.000Z,8.3
2023-02-14T11:41:43.000Z,10.3
2023-02-14T11:42:55.000Z,8.3
2023-02-14T11:44:07.000Z,8.3
2023-02-14T11:45:19.000Z,8.3
2023-02-14T11:46:30.000Z,8.3
2023-02-14T11:47:43.000Z,8
2023-02-14T11:48:55.000Z,9
2023-02-14T11:50:07.000Z,8.3
2023-02-14T11:51:19.000Z,7.7
2023-02-14T11:52:31.000Z,8
2023-02-14T11:53:44.000Z,6.4
2023-02-14T11:54:56.000Z,10.3
2023-02-14T11:56:08.000Z,9.6
2023-02-14T11:57:20.000Z,8.3
2023-02-14T11:58:32.000Z,8.3
2023-02-14T11:59:44.000Z,8
2023-02-14T12:00:57.000Z,8.3
2023-02-14T12:02:08.000Z,8
2023-02-14T12:03:20.000Z,8.3
2023-02-14T12:04:32.000Z,9.6
2023-02-14T12:05:44.000Z,11.2
2023-02-14T12:06:57.000Z,8
2023-02-14T12:08:09.000Z,9.6
2023-02-14T12:09:21.000Z,8
2023-02-14T12:10:33.000Z,8.3
2023-02-14T12:11:45.000Z,5.8
2023-02-14T12:12:58.000Z,8
2023-02-14T12:14:10.000Z,9.9
2023-02-14T12:15:22.000Z,9.6
2023-02-14T12:16:34.000Z,8
2023-02-14T12:17:45.000Z,8
2023-02-14T12:18:57.000Z,8
2023-02-14T12:20:10.000Z,8
2023-02-14T12:21:22.000Z,9.3
2023-02-14T12:22:34.000Z,8
2023-02-14T12:23:46.000Z,8
2023-02-14T12:24:58.000Z,11.9
2023-02-14T12:26:11.000Z,8
2023-02-14T12:27:23.000Z,8
2023-02-14T12:28:35.000Z,8.3
2023-02-14T12:29:47.000Z,9.9
2023-02-14T12:30:59.000Z,7
2023-02-14T12:32:11.000Z,9
2023-02-14T12:33:36.424Z,5.8
2023-02-14T12:34:47.616Z,8
2023-02-14T12:35:47.000Z,5.8
2023-02-14T12:36:59.000Z,9.6
2023-02-14T12:38:11.000Z,6.7
2023-02-14T12:39:24.000Z,9.6
2023-02-14T12:40:36.000Z,5.8
2023-02-14T12:41:48.000Z,10.3
2023-02-14T12:43:00.000Z,8
2023-02-14T12:44:12.000Z,8
2023-02-14T12:45:25.000Z,3.2
2023-02-14T12:46:37.000Z,6.1
2023-02-14T12:47:49.000Z,5.8
2023-02-14T12:49:01.000Z,8.3
2023-02-14T12:50:13.000Z,8
2023-02-14T12:51:24.000Z,5.8
2023-02-14T12:52:37.000Z,8
2023-02-14T12:53:49.000Z,10.3
2023-02-14T12:55:01.000Z,8
2023-02-14T12:56:13.000Z,8.3
2023-02-14T12:57:25.000Z,7.7
2023-02-14T12:58:38.000Z,5.8
2023-02-14T12:59:50.000Z,8
2023-02-14T13:01:02.000Z,6.4
2023-02-14T13:02:14.000Z,8.3
2023-02-14T13:03:26.000Z,9.6
2023-02-14T13:04:38.000Z,7.7
2023-02-14T13:05:51.000Z,7.7
2023-02-14T13:07:02.000Z,8
2023-02-14T13:08:14.000Z,9.6
2023-02-14T13:09:26.000Z,6.1
2023-02-14T13:10:38.000Z,9.3
2023-02-14T13:11:51.000Z,7.7
2023-02-14T13:13:03.000Z,7.7
2023-02-14T13:14:15.000Z,5.4
2023-02-14T13:15:27.000Z,11.6
2023-02-14T13:16:39.000Z,8.3
2023-02-14T13:17:52.000Z,7.7
2023-02-14T13:19:04.000Z,9.9
2023-02-14T13:20:16.000Z,10.3
2023-02-14T13:21:28.000Z,7.7
2023-02-14T13:22:52.066Z,8.3
2023-02-14T13:25:16.441Z,7.7
2023-02-14T13:26:16.000Z,6.1
2023-02-14T13:27:28.000Z,8
2023-02-14T13:31:05.000Z,7.7
2023-02-14T13:32:16.000Z,7.7
2023-02-14T13:33:28.000Z,7.4
2023-02-14T13:34:39.000Z,9.3
2023-02-14T13:35:50.000Z,6.7
2023-02-14T13:37:03.000Z,7.7
2023-02-14T13:38:14.000Z,8
2023-02-14T13:39:25.000Z,7.7
2023-02-14T13:40:36.000Z,8
2023-02-14T13:41:47.000Z,8
2023-02-14T13:43:00.000Z,7.7
2023-02-14T13:44:11.000Z,6.1
2023-02-14T13:45:23.000Z,7.7
2023-02-14T13:46:35.000Z,9.3
2023-02-14T13:47:47.000Z,7.4
2023-02-14T13:48:59.000Z,8.7
2023-02-14T13:50:12.000Z,7.7
2023-02-14T13:51:24.000Z,9.3
2023-02-14T13:52:36.000Z,7.7
2023-02-14T13:53:47.000Z,7.4
2023-02-14T13:54:58.000Z,9
2023-02-14T13:56:11.000Z,6.1
2023-02-14T13:57:23.000Z,7.7
2023-02-14T13:58:35.000Z,7.4
2023-02-14T13:59:47.000Z,7.7
2023-02-14T14:01:12.170Z,8
2023-02-14T14:02:12.000Z,7.7
2023-02-14T14:03:24.000Z,7.4
2023-02-14T14:04:48.723Z,9.9
2023-02-14T14:05:48.000Z,7.7
2023-02-14T14:07:00.000Z,7.4
2023-02-14T14:08:12.000Z,7.7
2023-02-14T14:09:25.000Z,7.4
2023-02-14T14:10:36.000Z,9.6
2023-02-14T14:11:48.000Z,7.7
2023-02-14T14:13:00.000Z,9.6
2023-02-14T14:14:25.217Z,7.7
2023-02-14T14:15:25.000Z,7
2023-02-14T14:16:37.000Z,7
2023-02-14T14:17:49.000Z,7.7
2023-02-14T14:19:00.000Z,9.3
2023-02-14T14:20:11.000Z,8.3
2023-02-14T14:21:23.000Z,7.4
2023-02-14T14:22:34.000Z,7.7
2023-02-14T14:23:46.000Z,7.4
2023-02-14T14:24:58.000Z,9.9
2023-02-14T14:26:10.000Z,7.4
2023-02-14T14:27:23.000Z,6.7
2023-02-14T14:28:35.000Z,6.1
2023-02-14T14:29:47.000Z,6.4
2023-02-14T14:30:59.000Z,7.4
2023-02-14T14:32:11.000Z,7.4
2023-02-14T14:33:23.000Z,10.6
2023-02-14T14:34:36.000Z,7.4
2023-02-14T14:35:48.000Z,4.8
2023-02-14T14:37:12.810Z,5.4
2023-02-14T14:38:12.000Z,5.8
2023-02-14T14:39:23.000Z,7.4
2023-02-14T14:40:36.000Z,7
2023-02-14T14:41:48.000Z,7.7
2023-02-14T14:43:00.000Z,7.4
2023-02-14T14:44:12.000Z,7.7
2023-02-14T14:45:24.000Z,7.4
2023-02-14T14:46:35.000Z,7.4
2023-02-14T14:47:47.000Z,7.4
2023-02-14T14:48:59.000Z,5.4
2023-02-14T14:50:11.000Z,9
2023-02-14T14:51:23.000Z,5.1
2023-02-14T14:52:35.000Z,7.4
2023-02-14T14:53:48.000Z,7.4
2023-02-14T14:55:00.000Z,7.4
2023-02-14T14:56:12.000Z,7.7
2023-02-14T14:57:24.000Z,8.7
2023-02-14T14:58:36.000Z,7.4
2023-02-14T14:59:49.000Z,7.4
2023-02-14T15:01:01.000Z,7
2023-02-14T15:02:13.000Z,6.1
2023-02-14T15:03:24.000Z,7.4
2023-02-14T15:04:36.000Z,7.4
2023-02-14T15:05:48.000Z,9
2023-02-14T15:07:01.000Z,3.8
2023-02-14T15:08:13.000Z,7.4
2023-02-14T15:09:25.000Z,9
2023-02-14T15:10:37.000Z,7
2023-02-14T15:11:49.000Z,9.6
2023-02-14T15:13:01.000Z,7
2023-02-14T15:14:24.635Z,7
2023-02-14T15:15:23.000Z,7
2023-02-14T15:16:34.000Z,6.1
2023-02-14T15:17:46.000Z,6.4
2023-02-14T15:18:59.000Z,5.4
2023-02-14T15:20:11.000Z,5.1
2023-02-14T15:21:23.000Z,8.3
2023-02-14T15:22:35.000Z,8
2023-02-14T15:23:47.000Z,7
2023-02-14T15:24:59.000Z,7.4
2023-02-14T15:26:12.000Z,7.4
2023-02-14T15:27:24.000Z,7
2023-02-14T15:28:36.000Z,6.7
2023-02-14T15:29:48.000Z,7
2023-02-14T15:31:00.000Z,8.7
2023-02-14T15:32:13.000Z,7
2023-02-14T15:33:24.000Z,8.7
2023-02-14T15:34:36.000Z,7
2023-02-14T15:35:48.000Z,8.3
2023-02-14T15:37:00.000Z,6.7
2023-02-14T15:38:13.000Z,5.4
2023-02-14T15:39:25.000Z,7.7
2023-02-14T15:40:36.000Z,8.3
2023-02-14T15:41:47.000Z,8
2023-02-14T15:42:58.000Z,4.8
2023-02-14T15:44:10.000Z,7
2023-02-14T15:45:22.000Z,7
2023-02-14T15:46:34.394Z,5.8
2023-02-14T15:47:46.000Z,6.7
2023-02-14T15:48:58.000Z,6.7
2023-02-14T15:50:10.000Z,7
2023-02-14T15:51:23.000Z,7.4
2023-02-14T15:52:35.000Z,4.5
2023-02-14T15:53:59.863Z,4.5
2023-02-14T15:54:59.000Z,6.7
2023-02-14T15:56:11.000Z,6.7
2023-02-14T15:57:24.000Z,6.7
2023-02-14T15:58:36.000Z,6.4
2023-02-14T15:59:47.000Z,6.7
2023-02-14T16:01:12.001Z,8
2023-02-14T16:02:11.000Z,6.4
2023-02-14T16:03:23.000Z,6.4
2023-02-14T16:04:36.000Z,6.7
2023-02-14T16:05:48.000Z,6.7
2023-02-14T16:07:00.000Z,6.1
2023-02-14T16:08:11.000Z,7
2023-02-14T16:09:22.000Z,8.3
2023-02-14T16:10:34.000Z,6.7
2023-02-14T16:11:45.000Z,6.4
2023-02-14T16:12:57.000Z,6.4
2023-02-14T16:14:09.000Z,6.1
2023-02-14T16:15:21.000Z,4.1
2023-02-14T16:16:34.000Z,4.8
2023-02-14T16:17:46.000Z,6.1
2023-02-14T16:18:58.000Z,5.8
2023-02-14T16:20:10.000Z,8.3
2023-02-14T16:21:22.000Z,5.8
2023-02-14T16:22:35.000Z,3.8
2023-02-14T16:23:47.000Z,8
2023-02-14T16:24:59.000Z,3.2
2023-02-14T16:26:11.000Z,6.1
2023-02-14T16:27:22.000Z,6.1
2023-02-14T16:28:34.000Z,4.5
2023-02-14T16:29:47.000Z,5.1
2023-02-14T16:30:59.000Z,5.4
2023-02-14T16:32:11.000Z,3.8
2023-02-14T16:33:23.000Z,7
2023-02-14T16:34:35.000Z,6.1
2023-02-14T16:35:47.000Z,6.7
2023-02-14T16:36:58.000Z,8
2023-02-14T16:38:10.000Z,3.8
2023-02-14T16:39:22.000Z,6.4
2023-02-14T16:40:34.000Z,7.7
2023-02-14T16:41:47.000Z,7.7
2023-02-14T16:42:59.000Z,5.4
2023-02-14T16:44:23.774Z,5.8
2023-02-14T16:45:23.000Z,4.8
2023-02-14T16:46:35.000Z,5.8
2023-02-14T16:47:47.000Z,5.8
2023-02-14T16:49:00.000Z,6.1